createdAt,value
2022-11-04T00:02:03.129Z,99861.09
2022-11-04T00:04:29.846Z,99856.94
2022-11-04T00:06:57.235Z,99835.97
2022-11-04T00:09:27.212Z,99839.22
2022-11-04T00:12:12.747Z,99831.44
2022-11-04T00:14:39.209Z,99837.28
2022-11-04T00:17:24.324Z,99834.59
2022-11-04T00:20:13.421Z,99826.75
2022-11-04T00:23:00.687Z,99819.72
2022-11-04T00:25:48.045Z,99811.03
2022-11-04T00:28:35.637Z,99796.81
2022-11-04T00:31:22.700Z,99795.06
2022-11-04T00:33:51.560Z,99792.91
2022-11-04T00:36:18.055Z,99789.06
2022-11-04T00:38:44.501Z,99807.22
2022-11-04T00:41:30.291Z,99804.09
2022-11-04T00:43:58.451Z,99815.63
2022-11-04T00:46:25.880Z,99812.66
2022-11-04T00:48:52.410Z,99815.50
2022-11-04T00:51:19.685Z,99804.50
2022-11-04T00:53:46.304Z,99804.88
2022-11-04T00:56:12.730Z,99806.16
2022-11-04T00:58:39.210Z,99817.19
2022-11-04T01:01:17.613Z,99811.28
2022-11-04T01:03:45.796Z,99806.47
2022-11-04T01:06:12.460Z,99798.13
2022-11-04T01:08:39.286Z,99814.25
2022-11-04T01:11:08.049Z,99799.84
2022-11-04T01:13:34.923Z,99801.16
2022-11-04T01:16:02.864Z,99798.97
2022-11-04T01:18:29.376Z,99784.91
2022-11-04T01:21:01.468Z,99785.84
2022-11-04T01:23:28.438Z,99785.22
2022-11-04T01:25:54.822Z,99771.44
2022-11-04T01:28:21.202Z,99777.09
2022-11-04T01:30:47.764Z,99766.09
2022-11-04T01:33:14.317Z,99768.59
2022-11-04T01:35:40.708Z,99770.56
2022-11-04T01:38:07.272Z,99776.56
2022-11-04T01:40:38.543Z,99777.47
2022-11-04T01:43:15.169Z,99764.25
2022-11-04T01:45:45.262Z,99771.09
2022-11-04T01:48:22.207Z,99773.25
2022-11-04T01:50:51.020Z,99774.91
2022-11-04T01:53:26.781Z,99771.03
2022-11-04T01:55:56.937Z,99778.41
2022-11-04T01:58:26.321Z,99771.69
2022-11-04T02:00:52.816Z,99756.44
2022-11-04T02:03:24.409Z,99757.09
2022-11-04T02:05:51.123Z,99736.88
2022-11-04T02:08:18.281Z,99739.00
2022-11-04T02:10:50.978Z,99734.84
2022-11-04T02:13:18.152Z,99750.19
2022-11-04T02:16:28.573Z,99752.31
2022-11-04T02:18:55.264Z,99748.34
2022-11-04T02:21:36.940Z,99760.78
2022-11-04T02:24:28.239Z,99762.47
2022-11-04T02:27:32.448Z,99764.31
2022-11-04T02:30:10.101Z,99767.63
2022-11-04T02:32:52.149Z,99763.09
2022-11-04T02:35:37.299Z,99743.53
2022-11-04T02:38:34.116Z,99745.19
2022-11-04T02:41:09.673Z,99751.97
2022-11-04T02:43:46.763Z,99751.13
2022-11-04T02:46:36.385Z,99762.47
2022-11-04T02:49:10.823Z,99766.38
2022-11-04T02:51:44.855Z,99763.88
2022-11-04T02:54:18.053Z,99760.72
2022-11-04T02:56:49.936Z,99778.28
2022-11-04T02:59:58.177Z,99772.56
2022-11-04T03:02:33.436Z,99774.66
2022-11-04T03:05:01.848Z,99766.69
2022-11-04T03:07:34.064Z,99778.16
2022-11-04T03:10:07.091Z,99770.31
2022-11-04T03:12:42.441Z,99753.41
2022-11-04T03:15:15.381Z,99753.59
2022-11-04T03:17:54.687Z,99738.06
2022-11-04T03:20:25.272Z,99745.75
2022-11-04T03:22:55.700Z,99743.97
2022-11-04T03:25:27.874Z,99749.44
2022-11-04T03:28:05.893Z,99758.31
2022-11-04T03:30:55.730Z,99759.13
2022-11-04T03:33:33.209Z,99765.13
2022-11-04T03:35:59.828Z,99770.75
2022-11-04T03:38:26.192Z,99777.03
2022-11-04T03:40:52.613Z,99782.41
2022-11-04T03:43:25.944Z,99774.47
2022-11-04T03:45:53.782Z,99765.59
2022-11-04T03:48:20.678Z,99766.63
2022-11-04T03:50:48.760Z,99760.06
2022-11-04T03:56:06.418Z,99769.03
2022-11-04T03:58:37.783Z,99771.50
2022-11-04T04:01:41.614Z,99764.97
2022-11-04T04:04:20.671Z,99766.81
2022-11-04T04:06:53.517Z,99778.34
2022-11-04T04:09:29.078Z,99762.47
2022-11-04T04:12:02.934Z,99785.66
2022-11-04T04:14:44.713Z,99763.56
2022-11-04T04:17:36.337Z,99778.75
2022-11-04T04:20:31.675Z,99786.78
2022-11-04T04:23:03.151Z,99804.31
2022-11-04T04:26:05.050Z,99797.28
2022-11-04T04:28:31.475Z,99805.63
2022-11-04T04:31:00.190Z,99790.06
2022-11-04T04:33:26.961Z,99808.28
2022-11-04T04:35:56.845Z,99819.28
2022-11-04T04:38:46.967Z,99808.81
2022-11-04T04:41:39.230Z,99817.53
2022-11-04T04:44:33.603Z,99837.78
2022-11-04T04:47:02.543Z,99829.25
2022-11-04T04:49:34.990Z,99842.28
2022-11-04T04:52:04.336Z,99846.94
2022-11-04T04:54:30.758Z,99850.25
2022-11-04T04:56:57.129Z,99856.44
2022-11-04T04:59:23.514Z,99850.81
2022-11-04T05:01:50.114Z,99870.28
2022-11-04T05:04:16.711Z,99855.34
2022-11-04T05:06:43.188Z,99860.50
2022-11-04T05:09:09.704Z,99866.78
2022-11-04T05:11:36.109Z,99888.69
2022-11-04T05:14:02.602Z,99882.50
2022-11-04T05:16:29.221Z,99887.03
2022-11-04T05:18:55.686Z,99892.50
2022-11-04T05:21:22.104Z,99884.63
2022-11-04T05:23:48.477Z,99896.47
2022-11-04T05:26:15.206Z,99908.22
2022-11-04T05:28:41.588Z,99916.44
2022-11-04T05:31:07.981Z,99910.78
2022-11-04T05:33:34.372Z,99912.47
2022-11-04T05:36:14.622Z,99906.56
2022-11-04T05:38:41.567Z,99928.09
2022-11-04T05:41:11.545Z,99925.50
2022-11-04T05:43:38.089Z,99921.81
2022-11-04T05:46:04.829Z,99926.53
2022-11-04T05:48:34.049Z,99937.91
2022-11-04T05:51:02.955Z,99939.09
2022-11-04T05:53:29.417Z,99932.91
2022-11-04T05:55:55.969Z,99936.97
2022-11-04T05:58:22.421Z,99935.66
2022-11-04T06:00:48.941Z,99938.09
2022-11-04T06:03:16.439Z,99953.69
2022-11-04T06:05:43.275Z,99950.00
2022-11-04T06:08:10.109Z,99951.94
2022-11-04T06:10:36.752Z,99953.78
2022-11-04T06:13:03.185Z,99978.38
2022-11-04T06:15:29.619Z,99971.91
2022-11-04T06:17:56.114Z,99984.22
2022-11-04T06:20:22.504Z,99986.53
2022-11-04T06:22:49.010Z,99962.03
2022-11-04T06:25:15.516Z,99992.44
2022-11-04T06:27:42.089Z,99983.91
2022-11-04T06:30:09.186Z,99969.41
2022-11-04T06:32:35.614Z,99997.13
2022-11-04T06:35:02.037Z,99997.22
2022-11-04T06:37:28.519Z,99996.41
2022-11-04T06:39:54.870Z,100004.97
2022-11-04T06:42:21.256Z,100007.19
2022-11-04T06:44:47.662Z,100003.38
2022-11-04T06:47:14.077Z,100002.91
2022-11-04T06:49:40.442Z,99995.84
2022-11-04T06:52:06.810Z,100017.97
2022-11-04T06:54:33.475Z,100012.53
2022-11-04T06:56:59.918Z,100010.53
2022-11-04T06:59:26.350Z,100019.06
2022-11-04T07:01:52.883Z,100010.75
2022-11-04T07:04:19.452Z,100023.44
2022-11-04T07:06:46.158Z,100027.34
2022-11-04T07:09:14.378Z,100046.09
2022-11-04T07:11:41.851Z,100045.81
2022-11-04T07:14:09.176Z,100054.47
2022-11-04T07:16:35.821Z,100040.16
2022-11-04T07:19:02.797Z,100049.66
2022-11-04T07:21:29.294Z,100059.41
2022-11-04T07:23:55.741Z,100046.53
2022-11-04T07:26:22.274Z,100067.94
2022-11-04T07:28:48.924Z,100073.31
2022-11-04T07:31:15.730Z,100056.81
2022-11-04T07:33:42.337Z,100087.34
2022-11-04T07:36:12.720Z,100096.06
2022-11-04T07:38:39.111Z,100090.56
2022-11-04T07:41:05.694Z,100106.63
2022-11-04T07:43:32.472Z,100117.63
2022-11-04T07:46:04.285Z,100125.84
2022-11-04T07:48:30.753Z,100122.88
2022-11-04T07:50:59.603Z,100129.41
2022-11-04T07:53:27.765Z,100120.88
2022-11-04T07:55:54.187Z,100111.31
2022-11-04T07:58:21.750Z,100123.16
2022-11-04T08:00:48.549Z,100117.47
2022-11-04T08:03:15.765Z,100109.97
2022-11-04T08:05:42.166Z,100120.47
2022-11-04T08:08:08.577Z,100131.31
2022-11-04T08:10:35.857Z,100128.09
2022-11-04T08:13:02.466Z,100132.28
2022-11-04T08:15:29.458Z,100137.44
2022-11-04T08:17:55.922Z,100118.03
2022-11-04T08:20:22.389Z,100120.53
2022-11-04T08:22:48.745Z,100136.91
2022-11-04T08:25:15.185Z,100123.69
2022-11-04T08:27:41.626Z,100136.69
2022-11-04T08:30:08.874Z,100140.72
2022-11-04T08:32:35.385Z,100141.06
2022-11-04T08:35:01.788Z,100135.69
2022-11-04T08:37:28.411Z,100146.88
2022-11-04T08:39:54.778Z,100147.72
2022-11-04T08:42:21.130Z,100133.31
2022-11-04T08:44:51.387Z,100143.69
2022-11-04T08:47:18.044Z,100152.97
2022-11-04T08:49:44.560Z,100150.16
2022-11-04T08:52:10.926Z,100158.50
2022-11-04T08:54:37.308Z,100160.44
2022-11-04T08:57:03.731Z,100169.34
2022-11-04T08:59:30.158Z,100167.63
2022-11-04T09:01:56.652Z,100152.22
2022-11-04T09:04:23.835Z,100165.13
2022-11-04T09:06:52.143Z,100155.41
2022-11-04T09:09:19.255Z,100167.66
2022-11-04T09:11:46.877Z,100172.66
2022-11-04T09:14:13.440Z,100169.34
2022-11-04T09:16:41.831Z,100191.19
2022-11-04T09:19:08.849Z,100191.34
2022-11-04T09:21:38.200Z,100177.63
2022-11-04T09:24:06.096Z,100197.84
2022-11-04T09:26:32.463Z,100195.63
2022-11-04T09:28:59.314Z,100197.59
2022-11-04T09:31:27.746Z,100200.28
2022-11-04T09:33:55.550Z,100185.53
2022-11-04T09:36:22.647Z,100189.38
2022-11-04T09:38:49.688Z,100192.09
2022-11-04T09:41:31.248Z,100191.03
2022-11-04T09:44:48.182Z,100204.97
2022-11-04T09:47:22.363Z,100209.69
2022-11-04T09:49:53.732Z,100216.19
2022-11-04T09:52:31.329Z,100213.69
2022-11-04T09:55:07.284Z,100220.03
2022-11-04T09:57:33.731Z,100228.06
2022-11-04T10:00:00.590Z,100228.34
2022-11-04T10:02:39.178Z,100233.50
2022-11-04T10:05:23.902Z,100246.81
2022-11-04T10:08:19.884Z,100251.56
2022-11-04T10:11:21.393Z,100231.59
2022-11-04T10:14:31.419Z,100233.75
2022-11-04T10:17:26.367Z,100235.25
2022-11-04T10:20:14.256Z,100234.03
2022-11-04T10:22:52.728Z,100232.16
2022-11-04T10:25:25.315Z,100220.28
2022-11-04T10:27:52.414Z,100229.88
2022-11-04T10:30:24.135Z,100218.97
2022-11-04T10:33:12.603Z,100223.81
2022-11-04T10:35:48.293Z,100219.13
2022-11-04T10:38:33.168Z,100227.06
2022-11-04T10:41:04.496Z,100217.25
2022-11-04T10:43:37.514Z,100228.97
2022-11-04T10:46:38.807Z,100212.88
2022-11-04T10:49:15.687Z,100222.03
2022-11-04T10:51:42.212Z,100208.56
2022-11-04T10:54:10.226Z,100224.66
2022-11-04T10:56:45.648Z,100217.22
2022-11-04T10:59:27.526Z,100236.34
2022-11-04T11:01:56.407Z,100221.13
2022-11-04T11:04:25.724Z,100224.97
2022-11-04T11:06:54.056Z,100236.34
2022-11-04T11:09:30.103Z,100249.63
2022-11-04T11:12:29.503Z,100252.97
2022-11-04T11:14:53.251Z,100248.88
2022-11-04T11:17:21.268Z,100235.59
2022-11-04T11:19:54.858Z,100258.75
2022-11-04T11:22:54.867Z,100254.28
2022-11-04T11:25:21.412Z,100273.31
2022-11-04T11:27:50.839Z,100274.94
2022-11-04T11:30:26.142Z,100285.16
2022-11-04T11:33:00.154Z,100290.84
2022-11-04T11:35:31.913Z,100290.03
2022-11-04T11:38:00.292Z,100290.84
2022-11-04T11:40:35.669Z,100287.78
2022-11-04T11:43:02.460Z,100295.28
2022-11-04T11:45:30.022Z,100306.31
2022-11-04T11:47:56.488Z,100299.66
2022-11-04T11:50:34.381Z,100318.94
2022-11-04T11:53:14.161Z,100313.69
2022-11-04T11:55:47.882Z,100309.25
2022-11-04T12:01:33.986Z,100304.66
2022-11-04T12:10:04.781Z,100313.69
2022-11-04T12:12:44.527Z,100308.69
2022-11-04T12:15:29.791Z,100309.34
2022-11-04T12:18:41.328Z,100314.91
2022-11-04T12:21:16.881Z,100317.97
2022-11-04T12:24:08.334Z,100318.09
2022-11-04T12:26:56.218Z,100322.00
2022-11-04T12:29:49.975Z,100332.56
2022-11-04T12:32:35.132Z,100329.41
2022-11-04T12:35:38.316Z,100332.03
2022-11-04T12:38:11.453Z,100331.13
2022-11-04T12:41:41.872Z,100338.38
2022-11-04T12:43:55.764Z,100338.94
2022-11-04T12:46:58.812Z,100341.50
2022-11-04T12:49:45.845Z,100344.09
2022-11-04T12:52:48.740Z,100330.91
2022-11-04T12:55:18.249Z,100339.66
2022-11-04T12:58:12.091Z,100343.00
2022-11-04T13:00:41.454Z,100348.56
2022-11-04T13:03:14.961Z,100346.91
2022-11-04T13:06:08.854Z,100353.31
2022-11-04T13:08:58.996Z,100353.88
2022-11-04T13:11:31.180Z,100354.88
2022-11-04T13:14:22.798Z,100361.28
2022-11-04T13:16:51.712Z,100360.19
2022-11-04T13:19:31.502Z,100345.44
2022-11-04T13:22:03.667Z,100351.50
2022-11-04T13:24:33.078Z,100358.63
2022-11-04T13:27:03.370Z,100360.94
2022-11-04T13:29:30.368Z,100360.72
2022-11-04T13:32:17.772Z,100365.97
2022-11-04T13:35:04.214Z,100376.75
2022-11-04T13:37:37.150Z,100371.63
2022-11-04T13:40:17.921Z,100392.25
2022-11-04T13:43:16.203Z,100395.94
2022-11-04T13:45:51.199Z,100406.47
2022-11-04T13:48:22.016Z,100387.38
2022-11-04T13:51:05.656Z,100415.03
2022-11-04T13:53:49.449Z,100406.22
2022-11-04T13:56:34.828Z,100424.19
2022-11-04T13:59:19.129Z,100423.44
2022-11-04T14:01:46.089Z,100423.09
2022-11-04T14:04:12.495Z,100429.03
2022-11-04T14:06:59.476Z,100434.78
2022-11-04T14:09:46.829Z,100438.22
2022-11-04T14:12:19.992Z,100441.56
2022-11-04T14:14:49.935Z,100434.41
2022-11-04T14:17:34.744Z,100449.34
2022-11-04T14:20:11.728Z,100446.09
2022-11-04T14:22:44.166Z,100451.66
2022-11-04T14:25:29.513Z,100455.72
2022-11-04T14:27:59.103Z,100461.50
2022-11-04T14:30:30.239Z,100456.31
2022-11-04T14:33:01.237Z,100458.81
2022-11-04T14:35:29.307Z,100466.38
2022-11-04T14:37:56.256Z,100470.66
2022-11-04T14:40:27.338Z,100455.72
2022-11-04T14:42:56.095Z,100458.13
2022-11-04T14:45:25.534Z,100456.69
2022-11-04T14:47:56.536Z,100477.34
2022-11-04T14:50:28.285Z,100483.09
2022-11-04T14:53:01.603Z,100481.59
2022-11-04T14:55:30.181Z,100480.59
2022-11-04T14:58:00.726Z,100484.13
2022-11-04T15:00:27.448Z,100488.16
2022-11-04T15:04:09.478Z,100482.63
2022-11-04T15:06:12.047Z,100486.38
2022-11-04T15:08:43.986Z,100487.06
2022-11-04T15:11:15.726Z,100490.31
2022-11-04T15:13:50.243Z,100488.81
2022-11-04T15:16:20.139Z,100486.63
2022-11-04T15:18:47.352Z,100494.50
2022-11-04T15:21:15.311Z,100490.19
2022-11-04T15:23:52.827Z,100497.56
2022-11-04T15:26:30.419Z,100494.72
2022-11-04T15:29:00.486Z,100500.31
2022-11-04T15:31:32.491Z,100515.56
2022-11-04T15:34:01.955Z,100515.41
2022-11-04T15:36:31.077Z,100521.28
2022-11-04T15:39:05.342Z,100514.94
2022-11-04T15:41:52.998Z,100516.28
2022-11-04T15:44:28.373Z,100528.34
2022-11-04T15:47:01.175Z,100523.16
2022-11-04T15:49:30.081Z,100536.41
2022-11-04T15:52:05.073Z,100534.91
2022-11-04T15:54:37.672Z,100544.94
2022-11-04T15:57:31.652Z,100539.91
2022-11-04T16:00:01.900Z,100540.13
2022-11-04T16:02:29.571Z,100557.19
2022-11-04T16:05:08.577Z,100553.84
2022-11-04T16:07:43.693Z,100564.44
2022-11-04T16:10:25.041Z,100559.06
2022-11-04T16:13:14.774Z,100566.28
2022-11-04T16:15:59.415Z,100575.31
2022-11-04T16:18:42.785Z,100554.84
2022-11-04T16:21:13.015Z,100577.00
2022-11-04T16:23:44.457Z,100576.47
2022-11-04T16:26:11.351Z,100582.88
2022-11-04T16:28:43.020Z,100581.34
2022-11-04T16:31:21.389Z,100592.25
2022-11-04T16:33:49.014Z,100587.53
2022-11-04T16:36:26.828Z,100579.84
2022-11-04T16:39:03.691Z,100593.88
2022-11-04T16:41:35.620Z,100599.25
2022-11-04T16:44:03.769Z,100601.38
2022-11-04T16:46:32.364Z,100606.84
2022-11-04T16:48:58.897Z,100614.03
2022-11-04T16:51:26.490Z,100617.84
2022-11-04T16:53:54.647Z,100618.13
2022-11-04T16:56:23.417Z,100615.56
2022-11-04T16:58:50.596Z,100607.63
2022-11-04T17:01:18.396Z,100629.34
2022-11-04T17:03:45.246Z,100610.00
2022-11-04T17:06:14.130Z,100615.28
2022-11-04T17:08:42.097Z,100618.75
2022-11-04T17:11:09.852Z,100638.13
2022-11-04T17:13:37.192Z,100644.97
2022-11-04T17:16:07.587Z,100640.38
2022-11-04T17:18:34.918Z,100647.41
2022-11-04T17:21:06.781Z,100632.63
2022-11-04T17:23:33.820Z,100655.91
2022-11-04T17:26:00.333Z,100655.22
2022-11-04T17:28:31.506Z,100653.16
2022-11-04T17:30:57.995Z,100639.72
2022-11-04T17:33:24.539Z,100641.69
2022-11-04T17:35:51.454Z,100630.41
2022-11-04T17:38:18.625Z,100652.22
2022-11-04T17:41:04.357Z,100656.59
2022-11-04T17:43:49.694Z,100678.25
2022-11-04T17:46:35.017Z,100658.19
2022-11-04T17:49:03.558Z,100658.72
2022-11-04T17:51:30.513Z,100658.72
2022-11-04T17:53:56.881Z,100644.22
2022-11-04T17:56:24.011Z,100645.13
2022-11-04T17:58:51.160Z,100669.50
2022-11-04T18:01:20.701Z,100664.69
2022-11-04T18:03:47.462Z,100663.69
2022-11-04T18:06:13.945Z,100679.13
2022-11-04T18:08:40.438Z,100662.72
2022-11-04T18:11:10.258Z,100673.66
2022-11-04T18:13:37.300Z,100677.50
2022-11-04T18:16:16.834Z,100664.13
2022-11-04T18:18:43.632Z,100666.13
2022-11-04T18:21:10.768Z,100667.19
2022-11-04T18:23:37.213Z,100667.97
2022-11-04T18:26:09.041Z,100685.91
2022-11-04T18:28:38.112Z,100680.81
2022-11-04T18:31:09.205Z,100690.88
2022-11-04T18:33:36.296Z,100696.03
2022-11-04T18:36:04.731Z,100688.06
2022-11-04T18:38:31.682Z,100693.88
2022-11-04T18:40:58.533Z,100697.13
2022-11-04T18:43:24.948Z,100687.19
2022-11-04T18:45:53.414Z,100682.50
2022-11-04T18:48:22.946Z,100684.28
2022-11-04T18:50:49.551Z,100703.66
2022-11-04T18:53:16.507Z,100710.44
2022-11-04T18:55:42.962Z,100699.56
2022-11-04T18:58:09.593Z,100704.97
2022-11-04T19:00:38.250Z,100706.94
2022-11-04T19:03:04.631Z,100707.84
2022-11-04T19:05:31.398Z,100710.38
2022-11-04T19:07:57.831Z,100715.28
2022-11-04T19:10:24.178Z,100717.69
2022-11-04T19:13:08.908Z,100720.81
2022-11-04T19:15:35.761Z,100728.28
2022-11-04T19:18:02.130Z,100734.03
2022-11-04T19:20:28.740Z,100724.91
2022-11-04T19:22:55.094Z,100738.53
2022-11-04T19:25:21.512Z,100725.88
2022-11-04T19:28:05.217Z,100733.06
2022-11-04T19:30:35.356Z,100750.47
2022-11-04T19:33:02.107Z,100742.03
2022-11-04T19:35:28.986Z,100742.59
2022-11-04T19:37:55.939Z,100755.94
2022-11-04T19:40:22.377Z,100762.25
2022-11-04T19:43:07.487Z,100749.50
2022-11-04T19:45:33.860Z,100766.91
2022-11-04T19:48:00.266Z,100760.31
2022-11-04T19:50:26.644Z,100749.66
2022-11-04T19:52:55.479Z,100765.25
2022-11-04T19:55:21.977Z,100743.91
2022-11-04T19:57:48.426Z,100760.34
2022-11-04T20:00:15.116Z,100757.41
2022-11-04T20:02:41.593Z,100777.63
2022-11-04T20:05:08.276Z,100769.31
2022-11-04T20:07:34.629Z,100781.81
2022-11-04T20:10:01.245Z,100781.81
2022-11-04T20:12:46.207Z,100776.06
2022-11-04T20:15:12.634Z,100788.44
2022-11-04T20:17:38.984Z,100800.38
2022-11-04T20:20:05.785Z,100789.81
2022-11-04T20:22:32.190Z,100788.84
2022-11-04T20:24:58.832Z,100788.28
2022-11-04T20:27:25.377Z,100778.47
2022-11-04T20:29:51.849Z,100796.44
2022-11-04T20:32:18.587Z,100792.09
2022-11-04T20:34:45.226Z,100797.16
2022-11-04T20:37:12.725Z,100798.41
2022-11-04T20:39:39.170Z,100801.53
2022-11-04T20:42:05.642Z,100806.44
2022-11-04T20:44:32.579Z,100809.50
2022-11-04T20:46:59.576Z,100818.34
2022-11-04T20:49:25.984Z,100806.94
2022-11-04T20:51:55.380Z,100809.06
2022-11-04T20:54:22.295Z,100809.63
2022-11-04T20:56:48.673Z,100825.19
2022-11-04T20:59:20.823Z,100826.75
2022-11-04T21:01:48.723Z,100827.28
2022-11-04T21:04:18.785Z,100828.13
2022-11-04T21:06:46.989Z,100833.59
2022-11-04T21:09:15.340Z,100850.28
2022-11-04T21:11:41.943Z,100857.97
2022-11-04T21:14:12.538Z,100857.38
2022-11-04T21:16:39.597Z,100848.94
2022-11-04T21:19:07.896Z,100858.63
2022-11-04T21:21:35.098Z,100858.19
2022-11-04T21:24:06.223Z,100859.44
2022-11-04T21:26:34.868Z,100881.03
2022-11-04T21:29:04.384Z,100870.94
2022-11-04T21:31:32.364Z,100871.34
2022-11-04T21:33:59.360Z,100882.69
2022-11-04T21:36:26.562Z,100881.84
2022-11-04T21:38:52.961Z,100873.53
2022-11-04T21:41:23.095Z,100884.06
2022-11-04T21:43:53.887Z,100880.84
2022-11-04T21:46:20.265Z,100878.44
2022-11-04T21:48:46.825Z,100878.25
2022-11-04T21:51:16.505Z,100881.88
2022-11-04T21:53:43.352Z,100884.56
2022-11-04T21:56:15.009Z,100890.44
2022-11-04T21:58:43.316Z,100889.97
2022-11-04T22:01:12.445Z,100900.50
2022-11-04T22:03:38.987Z,100904.38
2022-11-04T22:06:08.379Z,100914.31
2022-11-04T22:08:35.821Z,100921.75
2022-11-04T22:11:11.631Z,100920.91
2022-11-04T22:13:38.193Z,100923.34
2022-11-04T22:16:14.784Z,100928.28
2022-11-04T22:18:42.042Z,100932.91
2022-11-04T22:21:11.780Z,100932.19
2022-11-04T22:23:38.195Z,100935.69
2022-11-04T22:26:08.215Z,100930.75
2022-11-04T22:28:34.588Z,100927.66
2022-11-04T22:31:06.536Z,100938.72
2022-11-04T22:33:33.244Z,100930.44
2022-11-04T22:35:59.724Z,100925.47
2022-11-04T22:38:26.137Z,100924.50
2022-11-04T22:40:58.241Z,100931.53
2022-11-04T22:43:25.768Z,100921.25
2022-11-04T22:45:53.695Z,100925.84
2022-11-04T22:48:20.476Z,100924.31
2022-11-04T22:50:53.424Z,100919.88
2022-11-04T22:53:19.929Z,100929.19
2022-11-04T22:55:46.275Z,100926.78
2022-11-04T22:58:12.827Z,100910.50
2022-11-04T23:00:39.184Z,100908.44
2022-11-04T23:03:05.874Z,100917.88
2022-11-04T23:05:33.235Z,100921.13
2022-11-04T23:08:00.594Z,100918.84
2022-11-04T23:10:49.466Z,100932.75
2022-11-04T23:13:34.797Z,100910.63
2022-11-04T23:16:20.437Z,100929.59
2022-11-04T23:18:50.913Z,100942.31
2022-11-04T23:21:40.617Z,100907.44
2022-11-04T23:24:25.886Z,100927.59
2022-11-04T23:26:52.282Z,100927.00
2022-11-04T23:29:37.364Z,100943.44
2022-11-04T23:32:03.956Z,100946.59
2022-11-04T23:34:49.061Z,100949.13
2022-11-04T23:37:15.909Z,100947.09
2022-11-04T23:39:47.894Z,100951.59
2022-11-04T23:42:22.772Z,100961.38
2022-11-04T23:45:08.829Z,100954.25
2022-11-04T23:48:04.862Z,100949.97
2022-11-04T23:50:52.345Z,100945.03
2022-11-04T23:53:39.305Z,100958.91
2022-11-04T23:56:28.082Z,100960.72
2022-11-04T23:59:12.973Z,100956.91
